sensor_id;sensor_type;location;lat;lon;timestamp;pressure;altitude;pressure_sealevel;temperature;humidity
42247;BME280;27913;42.722;23.268;2023-01-09T00:01:44;95063.59;;;-0.33;87.08
42247;BME280;27913;42.722;23.268;2023-01-09T00:04:11;95219.06;;;0.54;86.08
42247;BME280;27913;42.722;23.268;2023-01-09T00:06:37;95009.41;;;-0.69;85.95
42247;BME280;27913;42.722;23.268;2023-01-09T00:09:04;95091.41;;;-0.37;85.22
42247;BME280;27913;42.722;23.268;2023-01-09T00:11:30;95291.75;;;0.96;86.66
42247;BME280;27913;42.722;23.268;2023-01-09T00:13:56;95264.09;;;0.86;86.56
42247;BME280;27913;42.722;23.268;2023-01-09T00:16:21;95042.91;;;-0.56;85.18
42247;BME280;27913;42.722;23.268;2023-01-09T00:18:46;95256.81;;;0.56;85.67
42247;BME280;27913;42.722;23.268;2023-01-09T00:21:12;95318.59;;;1.07;86.75
42247;BME280;27913;42.722;23.268;2023-01-09T00:23:39;95261.41;;;0.64;85.87
42247;BME280;27913;42.722;23.268;2023-01-09T00:26:17;95251.53;;;0.58;86.59
42247;BME280;27913;42.722;23.268;2023-01-09T00:28:43;95085.53;;;-0.28;86.98
42247;BME280;27913;42.722;23.268;2023-01-09T00:31:10;95324.69;;;1.06;86.68
42247;BME280;27913;42.722;23.268;2023-01-09T00:33:44;95313.16;;;1.10;86.63
42247;BME280;27913;42.722;23.268;2023-01-09T00:36:10;95153.25;;;0.12;86.79
42247;BME280;27913;42.722;23.268;2023-01-09T00:38:37;95237.75;;;0.69;87.34
42247;BME280;27913;42.722;23.268;2023-01-09T00:41:05;95314.09;;;1.09;87.24
42247;BME280;27913;42.722;23.268;2023-01-09T00:43:40;95162.88;;;0.10;86.53
42247;BME280;27913;42.722;23.268;2023-01-09T00:46:07;95004.13;;;-0.91;86.67
42247;BME280;27913;42.722;23.268;2023-01-09T00:48:34;95066.28;;;-0.46;87.48
42247;BME280;27913;42.722;23.268;2023-01-09T00:51:01;95324.34;;;0.99;85.90
42247;BME280;27913;42.722;23.268;2023-01-09T00:53:30;95292.47;;;0.87;86.86
42247;BME280;27913;42.722;23.268;2023-01-09T00:55:58;95205.44;;;0.29;87.14
42247;BME280;27913;42.722;23.268;2023-01-09T00:58:25;95244.34;;;0.50;87.34
42247;BME280;27913;42.722;23.268;2023-01-09T01:03:26;95057.22;;;-0.64;87.37
42247;BME280;27913;42.722;23.268;2023-01-09T01:05:51;95140.56;;;-0.14;87.74
42247;BME280;27913;42.722;23.268;2023-01-09T01:08:36;95051.56;;;-0.80;87.82
42247;BME280;27913;42.722;23.268;2023-01-09T01:11:06;95228.25;;;0.35;87.88
42247;BME280;27913;42.722;23.268;2023-01-09T01:13:34;95241.31;;;0.45;87.33
42247;BME280;27913;42.722;23.268;2023-01-09T01:16:03;95234.81;;;0.39;87.99
42247;BME280;27913;42.722;23.268;2023-01-09T01:18:29;95302.81;;;0.87;88.97
42247;BME280;27913;42.722;23.268;2023-01-09T01:20:54;95166.97;;;0.13;89.31
42247;BME280;27913;42.722;23.268;2023-01-09T01:23:20;95298.69;;;0.84;88.67
42247;BME280;27913;42.722;23.268;2023-01-09T01:25:45;95211.91;;;0.34;88.89
42247;BME280;27913;42.722;23.268;2023-01-09T01:28:11;95168.97;;;0.09;89.23
42247;BME280;27913;42.722;23.268;2023-01-09T01:30:39;95220.13;;;0.40;88.65
42247;BME280;27913;42.722;23.268;2023-01-09T01:33:05;95063.56;;;-0.56;88.62
42247;BME280;27913;42.722;23.268;2023-01-09T01:35:31;95135.47;;;-0.16;89.11
42247;BME280;27913;42.722;23.268;2023-01-09T01:37:57;95206.13;;;0.31;88.54
42247;BME280;27913;42.722;23.268;2023-01-09T01:40:22;95281.06;;;0.78;88.54
42247;BME280;27913;42.722;23.268;2023-01-09T01:42:49;95259.50;;;0.78;88.93
42247;BME280;27913;42.722;23.268;2023-01-09T01:45:17;95237.19;;;0.54;88.35
42247;BME280;27913;42.722;23.268;2023-01-09T01:48:00;95126.91;;;-0.05;88.82
42247;BME280;27913;42.722;23.268;2023-01-09T01:50:42;95149.13;;;0.21;89.47
42247;BME280;27913;42.722;23.268;2023-01-09T01:55:36;95255.75;;;0.82;89.22
42247;BME280;27913;42.722;23.268;2023-01-09T01:58:05;95219.66;;;0.57;89.78
42247;BME280;27913;42.722;23.268;2023-01-09T02:00:37;94956.81;;;-1.03;89.16
42247;BME280;27913;42.722;23.268;2023-01-09T02:03:05;95122.31;;;-0.01;89.33
42247;BME280;27913;42.722;23.268;2023-01-09T02:05:32;95251.41;;;0.71;89.15
42247;BME280;27913;42.722;23.268;2023-01-09T02:07:58;94983.00;;;-0.84;89.11
42247;BME280;27913;42.722;23.268;2023-01-09T02:10:24;95226.34;;;0.71;89.35
42247;BME280;27913;42.722;23.268;2023-01-09T02:12:49;95234.94;;;0.72;89.52
42247;BME280;27913;42.722;23.268;2023-01-09T02:15:16;95165.91;;;0.27;89.27
42247;BME280;27913;42.722;23.268;2023-01-09T02:20:45;95109.41;;;-0.13;88.54
42247;BME280;27913;42.722;23.268;2023-01-09T02:23:42;95161.22;;;0.20;89.05
42247;BME280;27913;42.722;23.268;2023-01-09T02:29:22;95164.84;;;0.29;90.00
42247;BME280;27913;42.722;23.268;2023-01-09T02:35:37;95212.69;;;0.69;89.97
42247;BME280;27913;42.722;23.268;2023-01-09T02:42:43;95231.31;;;0.63;87.80
42247;BME280;27913;42.722;23.268;2023-01-09T02:45:09;95216.81;;;0.60;88.02
42247;BME280;27913;42.722;23.268;2023-01-09T02:50:04;95231.50;;;0.60;88.91
42247;BME280;27913;42.722;23.268;2023-01-09T03:01:26;95151.22;;;0.04;89.66
42247;BME280;27913;42.722;23.268;2023-01-09T03:09:20;95149.56;;;-0.08;88.83
42247;BME280;27913;42.722;23.268;2023-01-09T03:11:53;95205.44;;;0.29;89.33
42247;BME280;27913;42.722;23.268;2023-01-09T03:14:22;95152.63;;;-0.03;89.00
42247;BME280;27913;42.722;23.268;2023-01-09T03:16:52;95136.66;;;-0.08;89.37
42247;BME280;27913;42.722;23.268;2023-01-09T03:19:22;95031.25;;;-0.74;88.56
42247;BME280;27913;42.722;23.268;2023-01-09T03:21:49;95112.19;;;-0.39;89.02
42247;BME280;27913;42.722;23.268;2023-01-09T03:24:19;94968.31;;;-1.18;88.93
42247;BME280;27913;42.722;23.268;2023-01-09T03:26:45;95222.72;;;0.40;88.01
42247;BME280;27913;42.722;23.268;2023-01-09T03:29:10;95216.38;;;0.32;87.98
42247;BME280;27913;42.722;23.268;2023-01-09T03:31:36;95161.09;;;-0.24;87.27
42247;BME280;27913;42.722;23.268;2023-01-09T03:34:01;95152.25;;;-0.33;88.44
42247;BME280;27913;42.722;23.268;2023-01-09T03:36:27;94904.13;;;-1.82;88.66
42247;BME280;27913;42.722;23.268;2023-01-09T03:38:52;95225.78;;;0.10;88.50
42247;BME280;27913;42.722;23.268;2023-01-09T03:41:18;95150.75;;;-0.35;88.55
42247;BME280;27913;42.722;23.268;2023-01-09T03:43:44;95093.03;;;-0.59;88.65
42247;BME280;27913;42.722;23.268;2023-01-09T03:46:13;95206.13;;;0.08;87.92
42247;BME280;27913;42.722;23.268;2023-01-09T03:48:39;95218.69;;;0.13;88.68
42247;BME280;27913;42.722;23.268;2023-01-09T03:51:05;95130.16;;;-0.49;87.96
42247;BME280;27913;42.722;23.268;2023-01-09T03:53:30;95218.69;;;0.13;88.67
42247;BME280;27913;42.722;23.268;2023-01-09T03:55:56;95212.38;;;0.05;87.72
42247;BME280;27913;42.722;23.268;2023-01-09T03:58:22;95055.28;;;-0.96;87.37
42247;BME280;27913;42.722;23.268;2023-01-09T04:00:48;95150.03;;;-0.38;88.31
42247;BME280;27913;42.722;23.268;2023-01-09T04:03:16;95153.66;;;-0.40;87.77
42247;BME280;27913;42.722;23.268;2023-01-09T04:05:43;95013.56;;;-1.26;87.42
42247;BME280;27913;42.722;23.268;2023-01-09T04:08:09;95135.31;;;-0.49;87.49
42247;BME280;27913;42.722;23.268;2023-01-09T04:10:35;95220.81;;;-0.04;86.97
42247;BME280;27913;42.722;23.268;2023-01-09T04:13:00;95216.84;;;0.03;87.36
42247;BME280;27913;42.722;23.268;2023-01-09T04:15:25;95143.91;;;-0.48;88.20
42247;BME280;27913;42.722;23.268;2023-01-09T04:17:51;95135.69;;;-0.53;88.51
42247;BME280;27913;42.722;23.268;2023-01-09T04:20:16;95077.63;;;-0.83;88.75
42247;BME280;27913;42.722;23.268;2023-01-09T04:22:42;95126.97;;;-0.52;90.19
42247;BME280;27913;42.722;23.268;2023-01-09T04:25:09;95208.00;;;-0.06;89.07
42247;BME280;27913;42.722;23.268;2023-01-09T04:27:35;95204.84;;;-0.09;88.92
42247;BME280;27913;42.722;23.268;2023-01-09T04:30:00;95189.53;;;-0.24;89.10
42247;BME280;27913;42.722;23.268;2023-01-09T04:32:26;95204.34;;;-0.03;89.76
42247;BME280;27913;42.722;23.268;2023-01-09T04:34:53;95044.38;;;-1.00;89.59
42247;BME280;27913;42.722;23.268;2023-01-09T04:37:19;95139.09;;;-0.41;89.46
42247;BME280;27913;42.722;23.268;2023-01-09T04:39:45;95194.84;;;-0.14;88.57
42247;BME280;27913;42.722;23.268;2023-01-09T04:42:10;94970.78;;;-1.53;88.77
42247;BME280;27913;42.722;23.268;2023-01-09T04:44:36;95123.56;;;-0.53;88.59
42247;BME280;27913;42.722;23.268;2023-01-09T04:47:02;95190.63;;;-0.04;89.13
42247;BME280;27913;42.722;23.268;2023-01-09T04:49:27;95201.06;;;-0.05;89.04
42247;BME280;27913;42.722;23.268;2023-01-09T04:51:53;95170.38;;;-0.21;89.55
42247;BME280;27913;42.722;23.268;2023-01-09T04:54:19;95194.00;;;-0.03;88.60
42247;BME280;27913;42.722;23.268;2023-01-09T04:56:45;95195.31;;;-0.09;88.79
42247;BME280;27913;42.722;23.268;2023-01-09T04:59:11;95152.03;;;-0.30;89.12
42247;BME280;27913;42.722;23.268;2023-01-09T05:01:37;95194.50;;;-0.09;89.56
42247;BME280;27913;42.722;23.268;2023-01-09T05:04:03;95115.72;;;-0.51;89.92
42247;BME280;27913;42.722;23.268;2023-01-09T05:06:29;95197.78;;;-0.07;89.06
42247;BME280;27913;42.722;23.268;2023-01-09T05:08:55;95206.34;;;-0.07;89.64
42247;BME280;27913;42.722;23.268;2023-01-09T05:11:21;95114.78;;;-0.62;90.01
42247;BME280;27913;42.722;23.268;2023-01-09T05:13:47;95192.38;;;-0.04;90.47
42247;BME280;27913;42.722;23.268;2023-01-09T05:16:12;95202.84;;;-0.06;90.60
42247;BME280;27913;42.722;23.268;2023-01-09T05:18:38;95160.84;;;-0.32;91.21
42247;BME280;27913;42.722;23.268;2023-01-09T05:21:03;95203.19;;;0.01;91.22
42247;BME280;27913;42.722;23.268;2023-01-09T05:23:29;95165.66;;;-0.39;90.65
42247;BME280;27913;42.722;23.268;2023-01-09T05:25:54;95145.91;;;-0.52;90.34
42247;BME280;27913;42.722;23.268;2023-01-09T05:28:20;95138.22;;;-0.65;89.79
42247;BME280;27913;42.722;23.268;2023-01-09T05:30:46;95185.38;;;-0.38;90.92
42247;BME280;27913;42.722;23.268;2023-01-09T05:33:11;95091.09;;;-0.91;92.82
42247;BME280;27913;42.722;23.268;2023-01-09T05:35:37;95175.06;;;-0.38;93.08
42247;BME280;27913;42.722;23.268;2023-01-09T05:38:02;95204.81;;;-0.21;93.96
42247;BME280;27913;42.722;23.268;2023-01-09T05:40:28;95132.03;;;-0.62;95.21
42247;BME280;27913;42.722;23.268;2023-01-09T05:42:53;95131.44;;;-0.54;95.64
42247;BME280;27913;42.722;23.268;2023-01-09T05:45:19;95086.31;;;-0.73;95.53
42247;BME280;27913;42.722;23.268;2023-01-09T05:47:44;95199.41;;;-0.06;95.49
42247;BME280;27913;42.722;23.268;2023-01-09T05:50:11;95184.75;;;-0.06;95.55
42247;BME280;27913;42.722;23.268;2023-01-09T05:52:36;95184.03;;;-0.08;94.88
42247;BME280;27913;42.722;23.268;2023-01-09T05:55:03;95182.03;;;-0.04;95.41
42247;BME280;27913;42.722;23.268;2023-01-09T05:57:29;95109.84;;;-0.53;95.05
42247;BME280;27913;42.722;23.268;2023-01-09T05:59:54;95191.66;;;-0.06;94.56
42247;BME280;27913;42.722;23.268;2023-01-09T06:02:20;95115.72;;;-0.51;94.49
42247;BME280;27913;42.722;23.268;2023-01-09T06:04:45;95108.06;;;-0.53;94.36
42247;BME280;27913;42.722;23.268;2023-01-09T06:07:10;95176.25;;;-0.08;94.79
42247;BME280;27913;42.722;23.268;2023-01-09T06:09:36;95170.72;;;-0.03;95.02
42247;BME280;27913;42.722;23.268;2023-01-09T06:12:02;95169.94;;;-0.04;93.20
42247;BME280;27913;42.722;23.268;2023-01-09T06:14:27;94860.41;;;-1.95;93.31
42247;BME280;27913;42.722;23.268;2023-01-09T06:16:54;95179.09;;;0.01;93.00
42247;BME280;27913;42.722;23.268;2023-01-09T06:19:19;94961.13;;;-1.26;92.93
42247;BME280;27913;42.722;23.268;2023-01-09T06:21:45;95158.41;;;-0.11;92.13
42247;BME280;27913;42.722;23.268;2023-01-09T06:24:10;95115.16;;;-0.32;92.70
42247;BME280;27913;42.722;23.268;2023-01-09T06:26:36;95171.09;;;0.04;93.32
42247;BME280;27913;42.722;23.268;2023-01-09T06:29:01;95091.41;;;-0.37;92.97
42247;BME280;27913;42.722;23.268;2023-01-09T06:31:27;94873.06;;;-1.80;93.25
42247;BME280;27913;42.722;23.268;2023-01-09T06:33:53;94948.44;;;-1.41;93.13
42247;BME280;27913;42.722;23.268;2023-01-09T06:36:19;94808.56;;;-2.15;93.52
42247;BME280;27913;42.722;23.268;2023-01-09T06:38:47;94848.69;;;-1.88;93.59
42247;BME280;27913;42.722;23.268;2023-01-09T06:41:13;94849.97;;;-1.93;93.17
42247;BME280;27913;42.722;23.268;2023-01-09T06:43:41;95179.91;;;0.13;93.15
42247;BME280;27913;42.722;23.268;2023-01-09T06:46:07;95178.75;;;0.17;93.53
42247;BME280;27913;42.722;23.268;2023-01-09T06:48:33;94875.22;;;-1.74;93.06
42247;BME280;27913;42.722;23.268;2023-01-09T06:50:59;94929.78;;;-1.33;93.06
42247;BME280;27913;42.722;23.268;2023-01-09T06:53:25;94991.56;;;-0.95;92.75
42247;BME280;27913;42.722;23.268;2023-01-09T06:55:51;95123.59;;;-0.07;92.58
42247;BME280;27913;42.722;23.268;2023-01-09T06:58:16;94943.16;;;-1.28;93.07
42247;BME280;27913;42.722;23.268;2023-01-09T07:00:42;95179.69;;;0.27;92.83
42247;BME280;27913;42.722;23.268;2023-01-09T07:03:08;95158.16;;;0.15;93.32
42247;BME280;27913;42.722;23.268;2023-01-09T07:05:40;95147.94;;;0.14;93.60
42247;BME280;27913;42.722;23.268;2023-01-09T07:08:06;95064.03;;;-0.40;93.33
42247;BME280;27913;42.722;23.268;2023-01-09T07:10:31;95173.69;;;0.38;93.48
42247;BME280;27913;42.722;23.268;2023-01-09T07:12:57;95169.34;;;0.39;93.46
42247;BME280;27913;42.722;23.268;2023-01-09T07:15:22;95118.66;;;0.13;93.60
42247;BME280;27913;42.722;23.268;2023-01-09T07:17:50;95094.22;;;0.06;93.88
42247;BME280;27913;42.722;23.268;2023-01-09T07:20:16;95172.09;;;0.58;94.02
42247;BME280;27913;42.722;23.268;2023-01-09T07:22:42;95173.38;;;0.64;94.00
42247;BME280;27913;42.722;23.268;2023-01-09T07:25:08;95100.56;;;0.25;94.03
42247;BME280;27913;42.722;23.268;2023-01-09T07:27:34;95066.47;;;0.08;93.90
42247;BME280;27913;42.722;23.268;2023-01-09T07:29:59;95091.91;;;0.35;93.85
42247;BME280;27913;42.722;23.268;2023-01-09T07:32:25;95052.03;;;0.05;93.47
42247;BME280;27913;42.722;23.268;2023-01-09T07:34:50;95171.13;;;0.82;93.65
42247;BME280;27913;42.722;23.268;2023-01-09T07:37:17;95123.75;;;0.47;93.75
42247;BME280;27913;42.722;23.268;2023-01-09T07:39:42;95168.41;;;0.72;92.53
42247;BME280;27913;42.722;23.268;2023-01-09T07:42:08;95083.41;;;0.12;92.05
42247;BME280;27913;42.722;23.268;2023-01-09T07:44:33;95187.88;;;0.67;91.79
42247;BME280;27913;42.722;23.268;2023-01-09T07:46:59;94985.13;;;-0.67;91.89
42247;BME280;27913;42.722;23.268;2023-01-09T07:49:24;95113.81;;;0.20;93.01
42247;BME280;27913;42.722;23.268;2023-01-09T07:51:50;95097.38;;;0.09;94.58
42247;BME280;27913;42.722;23.268;2023-01-09T07:54:15;95123.47;;;0.18;94.96
42247;BME280;27913;42.722;23.268;2023-01-09T07:56:41;95095.41;;;0.02;95.55
42247;BME280;27913;42.722;23.268;2023-01-09T07:59:06;95205.88;;;0.68;96.28
42247;BME280;27913;42.722;23.268;2023-01-09T08:01:32;95079.66;;;0.05;96.90
42247;BME280;27913;42.722;23.268;2023-01-09T08:03:57;95072.47;;;0.08;96.94
42247;BME280;27913;42.722;23.268;2023-01-09T08:06:23;95125.56;;;0.35;97.17
42247;BME280;27913;42.722;23.268;2023-01-09T08:08:48;95068.25;;;-0.04;97.56
42247;BME280;27913;42.722;23.268;2023-01-09T08:11:14;95197.81;;;0.83;98.08
42247;BME280;27913;42.722;23.268;2023-01-09T08:13:39;95194.88;;;0.88;98.12
42247;BME280;27913;42.722;23.268;2023-01-09T08:16:05;95195.09;;;0.96;98.28
42247;BME280;27913;42.722;23.268;2023-01-09T08:18:31;95199.31;;;0.97;98.49
42247;BME280;27913;42.722;23.268;2023-01-09T08:20:56;95093.13;;;0.31;98.35
42247;BME280;27913;42.722;23.268;2023-01-09T08:23:22;95131.13;;;0.64;98.44
42247;BME280;27913;42.722;23.268;2023-01-09T08:25:47;95186.78;;;1.14;98.32
42247;BME280;27913;42.722;23.268;2023-01-09T08:28:12;95201.03;;;1.19;98.41
42247;BME280;27913;42.722;23.268;2023-01-09T08:30:38;95178.19;;;1.13;97.70
42247;BME280;27913;42.722;23.268;2023-01-09T08:33:04;95121.53;;;0.87;97.52
42247;BME280;27913;42.722;23.268;2023-01-09T08:35:30;95059.88;;;0.59;97.30
42247;BME280;27913;42.722;23.268;2023-01-09T08:37:55;95193.56;;;1.48;97.54
42247;BME280;27913;42.722;23.268;2023-01-09T08:40:21;95189.84;;;1.62;97.16
42247;BME280;27913;42.722;23.268;2023-01-09T08:42:46;95186.63;;;1.69;97.22
42247;BME280;27913;42.722;23.268;2023-01-09T08:45:31;95178.13;;;1.89;97.58
42247;BME280;27913;42.722;23.268;2023-01-09T08:48:14;95180.53;;;2.02;96.99
42247;BME280;27913;42.722;23.268;2023-01-09T08:50:41;95184.94;;;2.11;96.98
42247;BME280;27913;42.722;23.268;2023-01-09T08:53:08;95165.84;;;2.22;96.62
42247;BME280;27913;42.722;23.268;2023-01-09T08:55:34;95107.41;;;1.87;96.11
42247;BME280;27913;42.722;23.268;2023-01-09T08:57:59;95160.31;;;2.37;95.98
42247;BME280;27913;42.722;23.268;2023-01-09T09:00:25;95156.09;;;2.46;95.69
42247;BME280;27913;42.722;23.268;2023-01-09T09:02:52;95118.88;;;2.25;96.32
42247;BME280;27913;42.722;23.268;2023-01-09T09:05:20;95111.78;;;2.37;96.54
42247;BME280;27913;42.722;23.268;2023-01-09T09:07:50;95154.91;;;2.70;95.35
42247;BME280;27913;42.722;23.268;2023-01-09T09:10:18;95003.56;;;1.98;95.35
42247;BME280;27913;42.722;23.268;2023-01-09T09:12:47;95138.69;;;2.87;94.38
42247;BME280;27913;42.722;23.268;2023-01-09T09:15:13;95148.38;;;2.95;94.59
42247;BME280;27913;42.722;23.268;2023-01-09T09:17:44;95124.59;;;3.00;93.87
42247;BME280;27913;42.722;23.268;2023-01-09T09:20:10;94999.06;;;2.20;93.60
42247;BME280;27913;42.722;23.268;2023-01-09T09:22:36;95005.22;;;2.29;93.70
42247;BME280;27913;42.722;23.268;2023-01-09T09:25:04;95059.78;;;2.69;93.86
42247;BME280;27913;42.722;23.268;2023-01-09T09:27:31;94965.47;;;2.28;93.23
42247;BME280;27913;42.722;23.268;2023-01-09T09:29:57;95014.94;;;2.76;94.06
42247;BME280;27913;42.722;23.268;2023-01-09T09:32:23;95097.88;;;3.37;92.97
42247;BME280;27913;42.722;23.268;2023-01-09T09:34:48;94937.59;;;2.50;92.18
42247;BME280;27913;42.722;23.268;2023-01-09T09:37:14;95093.22;;;3.51;92.25
42247;BME280;27913;42.722;23.268;2023-01-09T09:39:39;94959.31;;;2.79;91.76
42247;BME280;27913;42.722;23.268;2023-01-09T09:42:24;95027.16;;;3.34;91.92
42247;BME280;27913;42.722;23.268;2023-01-09T09:47:48;94986.75;;;3.40;90.61
42247;BME280;27913;42.722;23.268;2023-01-09T09:50:53;94989.47;;;3.48;89.72
42247;BME280;27913;42.722;23.268;2023-01-09T09:53:33;95041.88;;;3.91;89.89
42247;BME280;27913;42.722;23.268;2023-01-09T09:56:01;94844.72;;;2.82;89.17
42247;BME280;27913;42.722;23.268;2023-01-09T09:58:36;95011.16;;;3.95;89.43
42247;BME280;27913;42.722;23.268;2023-01-09T10:01:05;94783.00;;;2.66;88.73
42247;BME280;27913;42.722;23.268;2023-01-09T10:08:49;94888.25;;;3.65;87.54
42247;BME280;27913;42.722;23.268;2023-01-09T10:11:22;94918.88;;;3.89;87.48
42247;BME280;27913;42.722;23.268;2023-01-09T10:13:50;94978.41;;;4.39;87.30
42247;BME280;27913;42.722;23.268;2023-01-09T10:16:44;94735.41;;;2.94;86.68
42247;BME280;27913;42.722;23.268;2023-01-09T10:38:42;94949.03;;;4.91;84.95
42247;BME280;27913;42.722;23.268;2023-01-09T10:41:13;94804.25;;;4.09;84.26
42247;BME280;27913;42.722;23.268;2023-01-09T10:43:56;94932.16;;;5.04;85.05
42247;BME280;27913;42.722;23.268;2023-01-09T10:46:29;94941.44;;;5.06;85.18
42247;BME280;27913;42.722;23.268;2023-01-09T10:49:00;94932.56;;;5.17;85.24
42247;BME280;27913;42.722;23.268;2023-01-09T10:51:42;94866.94;;;4.95;84.89
42247;BME280;27913;42.722;23.268;2023-01-09T10:54:13;94911.63;;;5.36;84.69
42247;BME280;27913;42.722;23.268;2023-01-09T10:56:41;94898.78;;;5.42;84.80
42247;BME280;27913;42.722;23.268;2023-01-09T10:59:09;94640.34;;;3.91;84.15
42247;BME280;27913;42.722;23.268;2023-01-09T11:01:37;94815.53;;;5.06;83.20
42247;BME280;27913;42.722;23.268;2023-01-09T11:04:23;94881.38;;;5.60;82.56
42247;BME280;27913;42.722;23.268;2023-01-09T11:07:02;94775.25;;;4.92;81.60
42247;BME280;27913;42.722;23.268;2023-01-09T11:10:03;94864.94;;;5.67;82.13
42247;BME280;27913;42.722;23.268;2023-01-09T11:12:33;94882.88;;;5.71;81.25
42247;BME280;27913;42.722;23.268;2023-01-09T11:17:40;94813.31;;;5.28;80.33
42247;BME280;27913;42.722;23.268;2023-01-09T11:20:15;94737.66;;;4.68;80.69
42247;BME280;27913;42.722;23.268;2023-01-09T11:22:46;94878.44;;;5.63;80.77
42247;BME280;27913;42.722;23.268;2023-01-09T11:25:14;94778.06;;;5.07;80.85
42247;BME280;27913;42.722;23.268;2023-01-09T11:27:40;94574.94;;;3.85;79.77
42247;BME280;27913;42.722;23.268;2023-01-09T11:30:17;94803.88;;;5.27;80.43
42247;BME280;27913;42.722;23.268;2023-01-09T11:32:50;94771.56;;;5.11;80.05
42247;BME280;27913;42.722;23.268;2023-01-09T11:35:20;94693.06;;;4.71;79.70
42247;BME280;27913;42.722;23.268;2023-01-09T11:37:47;94862.84;;;5.79;80.17
42247;BME280;27913;42.722;23.268;2023-01-09T11:40:19;94789.41;;;5.41;79.27
42247;BME280;27913;42.722;23.268;2023-01-09T11:43:12;94754.78;;;5.22;79.71
42247;BME280;27913;42.722;23.268;2023-01-09T11:46:00;94787.91;;;5.47;79.33
42247;BME280;27913;42.722;23.268;2023-01-09T11:50:59;94723.31;;;5.15;79.05
42247;BME280;27913;42.722;23.268;2023-01-09T11:53:25;94845.56;;;5.87;78.76
42247;BME280;27913;42.722;23.268;2023-01-09T11:55:59;94776.38;;;5.58;78.71
42247;BME280;27913;42.722;23.268;2023-01-09T11:58:33;94827.63;;;5.92;79.02
42247;BME280;27913;42.722;23.268;2023-01-09T12:09:07;94769.69;;;5.55;78.49
42247;BME280;27913;42.722;23.268;2023-01-09T12:11:45;94711.94;;;5.25;78.48
42247;BME280;27913;42.722;23.268;2023-01-09T12:14:41;94741.63;;;5.57;78.73
42247;BME280;27913;42.722;23.268;2023-01-09T12:23:37;94791.72;;;6.02;77.57
42247;BME280;27913;42.722;23.268;2023-01-09T12:31:54;94665.13;;;5.15;77.21
42247;BME280;27913;42.722;23.268;2023-01-09T12:47:49;94530.47;;;4.14;78.81
42247;BME280;27913;42.722;23.268;2023-01-09T12:56:35;94597.44;;;4.46;79.19
42247;BME280;27913;42.722;23.268;2023-01-09T12:58:53;94698.69;;;5.10;79.55
42247;BME280;27913;42.722;23.268;2023-01-09T13:01:24;94736.25;;;5.42;79.48
42247;BME280;27913;42.722;23.268;2023-01-09T13:04:40;94690.59;;;5.21;79.35
42247;BME280;27913;42.722;23.268;2023-01-09T13:06:44;94581.19;;;4.53;79.62
42247;BME280;27913;42.722;23.268;2023-01-09T13:11:41;94713.44;;;5.44;79.32
42247;BME280;27913;42.722;23.268;2023-01-09T13:14:16;94638.75;;;5.10;79.08
42247;BME280;27913;42.722;23.268;2023-01-09T13:16:48;94705.09;;;5.49;78.89
42247;BME280;27913;42.722;23.268;2023-01-09T13:19:32;94630.25;;;4.99;78.67
42247;BME280;27913;42.722;23.268;2023-01-09T13:22:02;94656.03;;;5.19;78.38
42247;BME280;27913;42.722;23.268;2023-01-09T13:27:06;94687.03;;;5.39;78.63
42247;BME280;27913;42.722;23.268;2023-01-09T13:29:40;94690.78;;;5.44;79.13
42247;BME280;27913;42.722;23.268;2023-01-09T13:34:45;94680.78;;;5.15;78.87
42247;BME280;27913;42.722;23.268;2023-01-09T13:37:30;94674.94;;;5.21;79.21
42247;BME280;27913;42.722;23.268;2023-01-09T13:40:06;94567.84;;;4.64;79.02
42247;BME280;27913;42.722;23.268;2023-01-09T13:45:26;94564.72;;;4.35;80.08
42247;BME280;27913;42.722;23.268;2023-01-09T13:50:43;94645.75;;;5.01;79.50
42247;BME280;27913;42.722;23.268;2023-01-09T13:58:26;94671.13;;;4.90;81.47
42247;BME280;27913;42.722;23.268;2023-01-09T14:03:34;94642.59;;;4.64;81.35
42247;BME280;27913;42.722;23.268;2023-01-09T14:08:27;94608.41;;;4.15;81.75
42247;BME280;27913;42.722;23.268;2023-01-09T14:10:59;94736.75;;;4.86;82.67
42247;BME280;27913;42.722;23.268;2023-01-09T14:13:28;94658.81;;;4.49;82.81
42247;BME280;27913;42.722;23.268;2023-01-09T14:16:21;94712.69;;;4.92;82.53
42247;BME280;27913;42.722;23.268;2023-01-09T14:21:46;94693.03;;;4.54;82.84
42247;BME280;27913;42.722;23.268;2023-01-09T14:24:25;94708.91;;;4.78;82.83
42247;BME280;27913;42.722;23.268;2023-01-09T14:26:55;94714.13;;;4.78;82.80
42247;BME280;27913;42.722;23.268;2023-01-09T14:29:37;94662.69;;;4.45;83.13
42247;BME280;27913;42.722;23.268;2023-01-09T14:34:57;94710.66;;;4.69;83.25
42247;BME280;27913;42.722;23.268;2023-01-09T14:37:26;94591.06;;;3.89;83.15
42247;BME280;27913;42.722;23.268;2023-01-09T14:39:54;94606.69;;;3.97;83.48
42247;BME280;27913;42.722;23.268;2023-01-09T14:42:23;94649.84;;;4.08;84.08
42247;BME280;27913;42.722;23.268;2023-01-09T14:45:04;94574.09;;;3.77;83.68
42247;BME280;27913;42.722;23.268;2023-01-09T14:47:36;94694.81;;;4.54;88.71
42247;BME280;27913;42.722;23.268;2023-01-09T14:50:33;94690.03;;;4.84;94.19
42247;BME280;27913;42.722;23.268;2023-01-09T14:53:28;94654.78;;;4.63;86.75
42247;BME280;27913;42.722;23.268;2023-01-09T14:55:55;94630.94;;;4.41;84.87
42247;BME280;27913;42.722;23.268;2023-01-09T15:01:17;94609.34;;;4.06;83.91
42247;BME280;27913;42.722;23.268;2023-01-09T15:03:57;94698.41;;;4.61;84.08
42247;BME280;27913;42.722;23.268;2023-01-09T15:06:31;94644.50;;;4.10;84.44
42247;BME280;27913;42.722;23.268;2023-01-09T15:09:02;94579.00;;;3.53;85.24
42247;BME280;27913;42.722;23.268;2023-01-09T15:11:28;94470.25;;;2.87;85.68
42247;BME280;27913;42.722;23.268;2023-01-09T15:13:56;94606.78;;;3.79;85.77
42247;BME280;27913;42.722;23.268;2023-01-09T15:16:25;94692.41;;;4.26;85.84
42247;BME280;27913;42.722;23.268;2023-01-09T15:18:54;94561.53;;;3.37;86.83
42247;BME280;27913;42.722;23.268;2023-01-09T15:21:22;94614.41;;;3.72;86.96
42247;BME280;27913;42.722;23.268;2023-01-09T15:23:49;94621.41;;;3.80;87.03
42247;BME280;27913;42.722;23.268;2023-01-09T15:26:25;94669.44;;;4.21;86.39
42247;BME280;27913;42.722;23.268;2023-01-09T15:29:03;94680.34;;;4.16;87.09